sensor_id;sensor_type;location;lat;lon;timestamp;temperature;humidity
12504;DHT22;6316;48.118;-1.690;2023-12-14T00:01:40;9.40;99.90
12504;DHT22;6316;48.118;-1.690;2023-12-14T00:04:07;9.50;99.90
12504;DHT22;6316;48.118;-1.690;2023-12-14T00:06:33;9.50;99.90
12504;DHT22;6316;48.118;-1.690;2023-12-14T00:08:58;9.50;99.90
12504;DHT22;6316;48.118;-1.690;2023-12-14T00:11:24;9.50;99.90
12504;DHT22;6316;48.118;-1.690;2023-12-14T00:13:50;9.60;99.90
12504;DHT22;6316;48.118;-1.690;2023-12-14T00:16:15;9.50;99.90
12504;DHT22;6316;48.118;-1.690;2023-12-14T00:18:41;9.50;99.90
12504;DHT22;6316;48.118;-1.690;2023-12-14T00:21:07;9.50;99.90
12504;DHT22;6316;48.118;-1.690;2023-12-14T00:23:34;9.50;99.90
12504;DHT22;6316;48.118;-1.690;2023-12-14T00:25:59;9.50;99.90
12504;DHT22;6316;48.118;-1.690;2023-12-14T00:28:25;9.60;99.90
12504;DHT22;6316;48.118;-1.690;2023-12-14T00:30:51;9.50;99.90
12504;DHT22;6316;48.118;-1.690;2023-12-14T00:33:16;9.50;99.90
12504;DHT22;6316;48.118;-1.690;2023-12-14T00:35:42;9.50;99.90
12504;DHT22;6316;48.118;-1.690;2023-12-14T00:38:07;9.50;99.90
12504;DHT22;6316;48.118;-1.690;2023-12-14T00:40:33;9.50;99.90
12504;DHT22;6316;48.118;-1.690;2023-12-14T00:42:59;9.50;99.90
12504;DHT22;6316;48.118;-1.690;2023-12-14T00:45:24;9.50;99.90
12504;DHT22;6316;48.118;-1.690;2023-12-14T00:47:50;9.50;99.90
12504;DHT22;6316;48.118;-1.690;2023-12-14T00:50:15;9.40;99.90
12504;DHT22;6316;48.118;-1.690;2023-12-14T00:52:41;9.40;99.90
12504;DHT22;6316;48.118;-1.690;2023-12-14T00:55:07;9.40;99.90
12504;DHT22;6316;48.118;-1.690;2023-12-14T00:57:32;9.40;99.90
12504;DHT22;6316;48.118;-1.690;2023-12-14T00:59:58;9.40;99.90
12504;DHT22;6316;48.118;-1.690;2023-12-14T01:02:24;9.30;99.90
12504;DHT22;6316;48.118;-1.690;2023-12-14T01:04:49;9.40;99.90
12504;DHT22;6316;48.118;-1.690;2023-12-14T01:07:15;9.40;99.90
12504;DHT22;6316;48.118;-1.690;2023-12-14T01:09:40;9.40;99.90
12504;DHT22;6316;48.118;-1.690;2023-12-14T01:12:06;9.40;99.90
12504;DHT22;6316;48.118;-1.690;2023-12-14T01:14:32;9.30;99.90
12504;DHT22;6316;48.118;-1.690;2023-12-14T01:16:57;9.40;99.90
12504;DHT22;6316;48.118;-1.690;2023-12-14T01:19:23;9.40;99.90
12504;DHT22;6316;48.118;-1.690;2023-12-14T01:21:50;9.30;99.90
12504;DHT22;6316;48.118;-1.690;2023-12-14T01:24:16;9.30;99.90
12504;DHT22;6316;48.118;-1.690;2023-12-14T01:26:42;9.30;99.90
12504;DHT22;6316;48.118;-1.690;2023-12-14T01:29:07;9.30;99.90
12504;DHT22;6316;48.118;-1.690;2023-12-14T01:31:33;9.30;99.90
12504;DHT22;6316;48.118;-1.690;2023-12-14T01:33:58;9.20;99.90
12504;DHT22;6316;48.118;-1.690;2023-12-14T01:36:25;9.20;99.90
12504;DHT22;6316;48.118;-1.690;2023-12-14T01:38:51;9.20;99.90
12504;DHT22;6316;48.118;-1.690;2023-12-14T01:41:18;9.10;99.90
12504;DHT22;6316;48.118;-1.690;2023-12-14T01:43:44;9.00;99.90
12504;DHT22;6316;48.118;-1.690;2023-12-14T01:46:09;9.00;99.90
12504;DHT22;6316;48.118;-1.690;2023-12-14T01:48:35;8.90;99.90
12504;DHT22;6316;48.118;-1.690;2023-12-14T01:51:01;8.90;99.90
12504;DHT22;6316;48.118;-1.690;2023-12-14T01:53:27;8.80;99.90
12504;DHT22;6316;48.118;-1.690;2023-12-14T01:55:52;8.70;99.90
12504;DHT22;6316;48.118;-1.690;2023-12-14T01:58:18;8.70;99.90
12504;DHT22;6316;48.118;-1.690;2023-12-14T02:01:05;8.60;99.90
12504;DHT22;6316;48.118;-1.690;2023-12-14T02:03:33;8.60;99.90
12504;DHT22;6316;48.118;-1.690;2023-12-14T02:05:59;8.50;99.90
12504;DHT22;6316;48.118;-1.690;2023-12-14T02:08:27;8.40;99.90
12504;DHT22;6316;48.118;-1.690;2023-12-14T02:10:52;8.30;99.90
12504;DHT22;6316;48.118;-1.690;2023-12-14T02:13:18;8.30;99.90
12504;DHT22;6316;48.118;-1.690;2023-12-14T02:15:43;8.20;99.90
12504;DHT22;6316;48.118;-1.690;2023-12-14T02:18:09;8.20;99.90
12504;DHT22;6316;48.118;-1.690;2023-12-14T02:20:35;8.10;99.90
12504;DHT22;6316;48.118;-1.690;2023-12-14T02:23:00;8.10;99.90
12504;DHT22;6316;48.118;-1.690;2023-12-14T02:25:27;8.10;99.90
12504;DHT22;6316;48.118;-1.690;2023-12-14T02:27:53;8.00;99.90
12504;DHT22;6316;48.118;-1.690;2023-12-14T02:30:19;8.00;99.90
12504;DHT22;6316;48.118;-1.690;2023-12-14T02:32:44;8.10;99.90
12504;DHT22;6316;48.118;-1.690;2023-12-14T02:35:10;7.90;99.90
12504;DHT22;6316;48.118;-1.690;2023-12-14T02:37:36;8.00;99.90
12504;DHT22;6316;48.118;-1.690;2023-12-14T02:40:08;8.00;99.90
12504;DHT22;6316;48.118;-1.690;2023-12-14T02:42:34;7.90;99.90
12504;DHT22;6316;48.118;-1.690;2023-12-14T02:45:00;7.80;99.90
12504;DHT22;6316;48.118;-1.690;2023-12-14T02:47:27;7.80;99.90
12504;DHT22;6316;48.118;-1.690;2023-12-14T02:49:53;7.70;99.90
12504;DHT22;6316;48.118;-1.690;2023-12-14T02:52:19;7.70;99.90
12504;DHT22;6316;48.118;-1.690;2023-12-14T02:54:45;7.70;99.90
12504;DHT22;6316;48.118;-1.690;2023-12-14T02:57:10;7.70;99.90
12504;DHT22;6316;48.118;-1.690;2023-12-14T02:59:36;7.60;99.90
12504;DHT22;6316;48.118;-1.690;2023-12-14T03:02:02;7.60;99.90
12504;DHT22;6316;48.118;-1.690;2023-12-14T03:04:27;7.60;99.90
12504;DHT22;6316;48.118;-1.690;2023-12-14T03:06:53;7.50;99.90
12504;DHT22;6316;48.118;-1.690;2023-12-14T03:09:19;7.40;99.90
12504;DHT22;6316;48.118;-1.690;2023-12-14T03:11:46;7.40;99.90
12504;DHT22;6316;48.118;-1.690;2023-12-14T03:14:12;7.40;99.90
12504;DHT22;6316;48.118;-1.690;2023-12-14T03:16:37;7.40;99.90
12504;DHT22;6316;48.118;-1.690;2023-12-14T03:19:03;7.40;99.90
12504;DHT22;6316;48.118;-1.690;2023-12-14T03:21:29;7.40;99.90
12504;DHT22;6316;48.118;-1.690;2023-12-14T03:23:55;7.40;99.90
12504;DHT22;6316;48.118;-1.690;2023-12-14T03:26:20;7.40;99.90
12504;DHT22;6316;48.118;-1.690;2023-12-14T03:28:46;7.40;99.90
12504;DHT22;6316;48.118;-1.690;2023-12-14T03:31:12;7.30;99.90
12504;DHT22;6316;48.118;-1.690;2023-12-14T03:33:38;7.30;99.90
12504;DHT22;6316;48.118;-1.690;2023-12-14T03:36:04;7.40;99.90
12504;DHT22;6316;48.118;-1.690;2023-12-14T03:38:31;7.30;99.90
12504;DHT22;6316;48.118;-1.690;2023-12-14T03:40:56;7.30;99.90
12504;DHT22;6316;48.118;-1.690;2023-12-14T03:43:22;7.30;99.90
12504;DHT22;6316;48.118;-1.690;2023-12-14T03:45:47;7.30;99.90
12504;DHT22;6316;48.118;-1.690;2023-12-14T03:48:13;7.20;99.90
12504;DHT22;6316;48.118;-1.690;2023-12-14T03:50:39;7.30;99.90
12504;DHT22;6316;48.118;-1.690;2023-12-14T03:53:04;7.20;99.90
12504;DHT22;6316;48.118;-1.690;2023-12-14T03:55:30;7.20;99.90
12504;DHT22;6316;48.118;-1.690;2023-12-14T03:57:56;7.20;99.90
12504;DHT22;6316;48.118;-1.690;2023-12-14T04:00:21;7.20;99.90
12504;DHT22;6316;48.118;-1.690;2023-12-14T04:02:47;7.10;99.90
12504;DHT22;6316;48.118;-1.690;2023-12-14T04:05:12;7.10;99.90
12504;DHT22;6316;48.118;-1.690;2023-12-14T04:07:39;7.10;99.90
12504;DHT22;6316;48.118;-1.690;2023-12-14T04:10:08;7.10;99.90
12504;DHT22;6316;48.118;-1.690;2023-12-14T04:12:35;7.10;99.90
12504;DHT22;6316;48.118;-1.690;2023-12-14T04:15:01;7.00;99.90
12504;DHT22;6316;48.118;-1.690;2023-12-14T04:17:27;7.00;99.90
12504;DHT22;6316;48.118;-1.690;2023-12-14T04:19:53;7.20;99.90
12504;DHT22;6316;48.118;-1.690;2023-12-14T04:22:19;7.00;99.90
12504;DHT22;6316;48.118;-1.690;2023-12-14T04:24:44;7.00;99.90
12504;DHT22;6316;48.118;-1.690;2023-12-14T04:27:10;6.90;99.90
12504;DHT22;6316;48.118;-1.690;2023-12-14T04:29:35;7.00;99.90
12504;DHT22;6316;48.118;-1.690;2023-12-14T04:32:01;6.90;99.90
12504;DHT22;6316;48.118;-1.690;2023-12-14T04:34:27;6.90;99.90
12504;DHT22;6316;48.118;-1.690;2023-12-14T04:36:53;6.90;99.90
12504;DHT22;6316;48.118;-1.690;2023-12-14T04:39:25;6.80;99.90
12504;DHT22;6316;48.118;-1.690;2023-12-14T04:41:51;6.80;99.90
12504;DHT22;6316;48.118;-1.690;2023-12-14T04:44:20;6.80;99.90
12504;DHT22;6316;48.118;-1.690;2023-12-14T04:46:49;6.80;99.90
12504;DHT22;6316;48.118;-1.690;2023-12-14T04:49:16;6.80;99.90
12504;DHT22;6316;48.118;-1.690;2023-12-14T04:51:41;6.80;99.90
12504;DHT22;6316;48.118;-1.690;2023-12-14T04:54:07;6.80;99.90
12504;DHT22;6316;48.118;-1.690;2023-12-14T04:56:33;6.80;99.90
12504;DHT22;6316;48.118;-1.690;2023-12-14T04:58:59;6.80;99.90
12504;DHT22;6316;48.118;-1.690;2023-12-14T05:01:24;6.70;99.90
12504;DHT22;6316;48.118;-1.690;2023-12-14T05:03:53;6.90;99.90
12504;DHT22;6316;48.118;-1.690;2023-12-14T05:06:19;6.90;99.90
12504;DHT22;6316;48.118;-1.690;2023-12-14T05:08:45;6.90;99.90
12504;DHT22;6316;48.118;-1.690;2023-12-14T05:11:12;7.00;99.90
12504;DHT22;6316;48.118;-1.690;2023-12-14T05:13:38;7.00;99.90
12504;DHT22;6316;48.118;-1.690;2023-12-14T05:16:03;6.90;99.90
12504;DHT22;6316;48.118;-1.690;2023-12-14T05:18:29;6.90;99.90
12504;DHT22;6316;48.118;-1.690;2023-12-14T05:20:55;7.00;99.90
12504;DHT22;6316;48.118;-1.690;2023-12-14T05:23:21;6.90;99.90
12504;DHT22;6316;48.118;-1.690;2023-12-14T05:25:46;6.90;99.90
12504;DHT22;6316;48.118;-1.690;2023-12-14T05:28:13;6.90;99.90
12504;DHT22;6316;48.118;-1.690;2023-12-14T05:30:38;6.90;99.90
12504;DHT22;6316;48.118;-1.690;2023-12-14T05:33:04;6.90;99.90
12504;DHT22;6316;48.118;-1.690;2023-12-14T05:35:30;6.90;99.90
12504;DHT22;6316;48.118;-1.690;2023-12-14T05:37:55;6.80;99.90
12504;DHT22;6316;48.118;-1.690;2023-12-14T05:40:21;6.80;99.90
12504;DHT22;6316;48.118;-1.690;2023-12-14T05:42:47;6.80;99.90
12504;DHT22;6316;48.118;-1.690;2023-12-14T05:45:12;6.80;99.90
12504;DHT22;6316;48.118;-1.690;2023-12-14T05:47:38;6.80;99.90
12504;DHT22;6316;48.118;-1.690;2023-12-14T05:50:05;6.80;99.90
12504;DHT22;6316;48.118;-1.690;2023-12-14T05:52:31;6.80;99.90
12504;DHT22;6316;48.118;-1.690;2023-12-14T05:54:56;6.90;99.90
12504;DHT22;6316;48.118;-1.690;2023-12-14T05:57:22;6.80;99.90
12504;DHT22;6316;48.118;-1.690;2023-12-14T05:59:50;6.80;99.90
12504;DHT22;6316;48.118;-1.690;2023-12-14T06:02:16;6.80;99.90
12504;DHT22;6316;48.118;-1.690;2023-12-14T06:04:41;6.80;99.90
12504;DHT22;6316;48.118;-1.690;2023-12-14T06:07:07;6.80;99.90
12504;DHT22;6316;48.118;-1.690;2023-12-14T06:09:32;6.70;99.90
12504;DHT22;6316;48.118;-1.690;2023-12-14T06:12:04;6.70;99.90
12504;DHT22;6316;48.118;-1.690;2023-12-14T06:14:30;6.70;99.90
12504;DHT22;6316;48.118;-1.690;2023-12-14T06:16:57;6.70;99.90
12504;DHT22;6316;48.118;-1.690;2023-12-14T06:19:23;6.70;99.90
12504;DHT22;6316;48.118;-1.690;2023-12-14T06:21:49;6.70;99.90
12504;DHT22;6316;48.118;-1.690;2023-12-14T06:24:14;6.80;99.90
12504;DHT22;6316;48.118;-1.690;2023-12-14T06:26:41;6.80;99.90
12504;DHT22;6316;48.118;-1.690;2023-12-14T06:29:08;6.70;99.90
12504;DHT22;6316;48.118;-1.690;2023-12-14T06:31:34;6.80;99.90
12504;DHT22;6316;48.118;-1.690;2023-12-14T06:34:00;6.80;99.90
12504;DHT22;6316;48.118;-1.690;2023-12-14T06:36:29;6.60;99.90
12504;DHT22;6316;48.118;-1.690;2023-12-14T06:38:55;6.70;99.90
12504;DHT22;6316;48.118;-1.690;2023-12-14T06:41:24;6.70;99.90
12504;DHT22;6316;48.118;-1.690;2023-12-14T06:43:50;6.70;99.90
12504;DHT22;6316;48.118;-1.690;2023-12-14T06:46:16;6.70;99.90
12504;DHT22;6316;48.118;-1.690;2023-12-14T06:48:42;6.70;99.90
12504;DHT22;6316;48.118;-1.690;2023-12-14T06:51:08;6.70;99.90
12504;DHT22;6316;48.118;-1.690;2023-12-14T06:53:34;6.70;99.90
12504;DHT22;6316;48.118;-1.690;2023-12-14T06:56:01;6.70;99.90
12504;DHT22;6316;48.118;-1.690;2023-12-14T06:58:26;6.70;99.90
12504;DHT22;6316;48.118;-1.690;2023-12-14T07:00:52;6.70;99.90
12504;DHT22;6316;48.118;-1.690;2023-12-14T07:03:18;6.70;99.90
12504;DHT22;6316;48.118;-1.690;2023-12-14T07:05:44;6.70;99.90
12504;DHT22;6316;48.118;-1.690;2023-12-14T07:08:09;6.80;99.90
12504;DHT22;6316;48.118;-1.690;2023-12-14T07:10:35;6.70;99.90
12504;DHT22;6316;48.118;-1.690;2023-12-14T07:13:00;6.70;99.90
12504;DHT22;6316;48.118;-1.690;2023-12-14T07:15:26;6.80;99.90
12504;DHT22;6316;48.118;-1.690;2023-12-14T07:17:52;6.90;99.90
12504;DHT22;6316;48.118;-1.690;2023-12-14T07:20:17;6.90;99.90
12504;DHT22;6316;48.118;-1.690;2023-12-14T07:22:43;6.90;99.90
12504;DHT22;6316;48.118;-1.690;2023-12-14T07:25:08;7.00;99.90
12504;DHT22;6316;48.118;-1.690;2023-12-14T07:27:34;6.90;99.90
12504;DHT22;6316;48.118;-1.690;2023-12-14T07:30:00;6.90;99.90
12504;DHT22;6316;48.118;-1.690;2023-12-14T07:32:25;6.90;99.90
12504;DHT22;6316;48.118;-1.690;2023-12-14T07:34:52;6.90;99.90
12504;DHT22;6316;48.118;-1.690;2023-12-14T07:37:18;7.00;99.90
12504;DHT22;6316;48.118;-1.690;2023-12-14T07:39:43;7.00;99.90
12504;DHT22;6316;48.118;-1.690;2023-12-14T07:42:09;7.00;99.90
12504;DHT22;6316;48.118;-1.690;2023-12-14T07:44:35;7.00;99.90
12504;DHT22;6316;48.118;-1.690;2023-12-14T07:47:01;7.00;99.90
12504;DHT22;6316;48.118;-1.690;2023-12-14T07:49:27;7.00;99.90
12504;DHT22;6316;48.118;-1.690;2023-12-14T07:51:53;7.10;99.90
12504;DHT22;6316;48.118;-1.690;2023-12-14T07:54:19;7.10;99.90
12504;DHT22;6316;48.118;-1.690;2023-12-14T07:56:44;7.10;99.90
12504;DHT22;6316;48.118;-1.690;2023-12-14T07:59:11;7.10;99.90
12504;DHT22;6316;48.118;-1.690;2023-12-14T08:01:37;7.10;99.90
12504;DHT22;6316;48.118;-1.690;2023-12-14T08:04:03;7.20;99.90
12504;DHT22;6316;48.118;-1.690;2023-12-14T08:06:29;7.20;99.90
12504;DHT22;6316;48.118;-1.690;2023-12-14T08:08:55;7.20;99.90
12504;DHT22;6316;48.118;-1.690;2023-12-14T08:11:24;7.20;99.90
12504;DHT22;6316;48.118;-1.690;2023-12-14T08:13:49;7.20;99.90
12504;DHT22;6316;48.118;-1.690;2023-12-14T08:16:15;7.30;99.90
12504;DHT22;6316;48.118;-1.690;2023-12-14T08:18:43;7.20;99.90
12504;DHT22;6316;48.118;-1.690;2023-12-14T08:21:11;7.20;99.90
12504;DHT22;6316;48.118;-1.690;2023-12-14T08:23:37;7.30;99.90
12504;DHT22;6316;48.118;-1.690;2023-12-14T08:26:02;7.30;99.90
12504;DHT22;6316;48.118;-1.690;2023-12-14T08:28:28;7.30;99.90
12504;DHT22;6316;48.118;-1.690;2023-12-14T08:30:54;7.30;99.90
12504;DHT22;6316;48.118;-1.690;2023-12-14T08:33:19;7.20;99.90
12504;DHT22;6316;48.118;-1.690;2023-12-14T08:35:45;7.40;99.90
12504;DHT22;6316;48.118;-1.690;2023-12-14T08:38:11;7.40;99.90
12504;DHT22;6316;48.118;-1.690;2023-12-14T08:40:37;7.40;99.90
12504;DHT22;6316;48.118;-1.690;2023-12-14T08:43:03;7.40;99.90
12504;DHT22;6316;48.118;-1.690;2023-12-14T08:45:29;7.50;99.90
12504;DHT22;6316;48.118;-1.690;2023-12-14T08:47:54;7.50;99.90
12504;DHT22;6316;48.118;-1.690;2023-12-14T08:50:20;7.50;99.90
12504;DHT22;6316;48.118;-1.690;2023-12-14T08:52:46;7.60;99.90
12504;DHT22;6316;48.118;-1.690;2023-12-14T08:55:12;7.60;99.90
12504;DHT22;6316;48.118;-1.690;2023-12-14T08:57:39;7.40;99.90
12504;DHT22;6316;48.118;-1.690;2023-12-14T09:00:05;7.50;99.90
12504;DHT22;6316;48.118;-1.690;2023-12-14T09:02:32;7.60;99.90
12504;DHT22;6316;48.118;-1.690;2023-12-14T09:04:58;7.60;99.90
12504;DHT22;6316;48.118;-1.690;2023-12-14T09:07:24;7.60;99.90
12504;DHT22;6316;48.118;-1.690;2023-12-14T09:09:50;7.80;99.90
12504;DHT22;6316;48.118;-1.690;2023-12-14T09:12:16;7.70;99.90
12504;DHT22;6316;48.118;-1.690;2023-12-14T09:14:42;7.70;99.90
12504;DHT22;6316;48.118;-1.690;2023-12-14T09:17:07;7.80;99.90
12504;DHT22;6316;48.118;-1.690;2023-12-14T09:19:33;7.80;99.90
12504;DHT22;6316;48.118;-1.690;2023-12-14T09:21:59;7.80;99.90
12504;DHT22;6316;48.118;-1.690;2023-12-14T09:24:24;7.90;99.90
12504;DHT22;6316;48.118;-1.690;2023-12-14T09:26:50;7.90;99.90
12504;DHT22;6316;48.118;-1.690;2023-12-14T09:29:16;7.90;99.90
12504;DHT22;6316;48.118;-1.690;2023-12-14T09:31:43;7.90;99.90
12504;DHT22;6316;48.118;-1.690;2023-12-14T09:34:13;7.90;99.90
12504;DHT22;6316;48.118;-1.690;2023-12-14T09:36:43;8.00;99.90
12504;DHT22;6316;48.118;-1.690;2023-12-14T09:39:08;8.00;99.90
12504;DHT22;6316;48.118;-1.690;2023-12-14T09:41:36;8.00;99.90
12504;DHT22;6316;48.118;-1.690;2023-12-14T09:44:04;8.10;99.90
12504;DHT22;6316;48.118;-1.690;2023-12-14T09:46:31;8.10;99.90
12504;DHT22;6316;48.118;-1.690;2023-12-14T09:48:57;8.20;99.90
12504;DHT22;6316;48.118;-1.690;2023-12-14T09:51:25;8.20;99.90
12504;DHT22;6316;48.118;-1.690;2023-12-14T09:53:52;8.20;99.90
12504;DHT22;6316;48.118;-1.690;2023-12-14T09:56:24;8.40;99.90
12504;DHT22;6316;48.118;-1.690;2023-12-14T09:58:49;8.30;99.90
12504;DHT22;6316;48.118;-1.690;2023-12-14T10:01:26;8.30;99.90
12504;DHT22;6316;48.118;-1.690;2023-12-14T10:04:18;8.40;99.90
12504;DHT22;6316;48.118;-1.690;2023-12-14T10:06:46;8.40;99.90
12504;DHT22;6316;48.118;-1.690;2023-12-14T10:09:12;8.50;99.90
12504;DHT22;6316;48.118;-1.690;2023-12-14T10:11:39;8.50;99.90
12504;DHT22;6316;48.118;-1.690;2023-12-14T10:14:24;8.60;99.90
12504;DHT22;6316;48.118;-1.690;2023-12-14T10:16:51;8.60;99.90
12504;DHT22;6316;48.118;-1.690;2023-12-14T10:19:20;8.70;99.90
12504;DHT22;6316;48.118;-1.690;2023-12-14T10:21:47;8.70;99.90
12504;DHT22;6316;48.118;-1.690;2023-12-14T10:24:14;8.80;99.90
12504;DHT22;6316;48.118;-1.690;2023-12-14T10:26:40;8.80;99.90
12504;DHT22;6316;48.118;-1.690;2023-12-14T10:29:06;8.90;99.90
12504;DHT22;6316;48.118;-1.690;2023-12-14T10:31:33;9.00;99.90
12504;DHT22;6316;48.118;-1.690;2023-12-14T10:34:03;9.00;99.90
12504;DHT22;6316;48.118;-1.690;2023-12-14T10:36:30;9.10;99.90
12504;DHT22;6316;48.118;-1.690;2023-12-14T10:38:57;9.10;99.90
12504;DHT22;6316;48.118;-1.690;2023-12-14T10:41:24;9.10;99.90
12504;DHT22;6316;48.118;-1.690;2023-12-14T10:43:52;9.10;99.90
12504;DHT22;6316;48.118;-1.690;2023-12-14T10:46:19;9.10;99.90
12504;DHT22;6316;48.118;-1.690;2023-12-14T10:48:47;9.20;99.90
12504;DHT22;6316;48.118;-1.690;2023-12-14T10:51:14;9.20;99.90
12504;DHT22;6316;48.118;-1.690;2023-12-14T10:53:40;9.20;99.90
12504;DHT22;6316;48.118;-1.690;2023-12-14T10:56:10;9.20;99.90
12504;DHT22;6316;48.118;-1.690;2023-12-14T10:58:55;9.20;99.90
12504;DHT22;6316;48.118;-1.690;2023-12-14T11:01:22;9.20;99.90
12504;DHT22;6316;48.118;-1.690;2023-12-14T11:03:50;9.20;99.90
12504;DHT22;6316;48.118;-1.690;2023-12-14T11:08:54;9.20;99.90
12504;DHT22;6316;48.118;-1.690;2023-12-14T11:11:21;9.20;99.90
12504;DHT22;6316;48.118;-1.690;2023-12-14T11:13:51;9.30;99.90
12504;DHT22;6316;48.118;-1.690;2023-12-14T11:16:20;9.30;99.90
12504;DHT22;6316;48.118;-1.690;2023-12-14T11:18:47;9.30;99.90
12504;DHT22;6316;48.118;-1.690;2023-12-14T11:21:18;9.30;99.90
12504;DHT22;6316;48.118;-1.690;2023-12-14T11:23:45;9.20;99.90
12504;DHT22;6316;48.118;-1.690;2023-12-14T11:26:11;9.20;99.90
12504;DHT22;6316;48.118;-1.690;2023-12-14T11:28:38;9.30;99.90
12504;DHT22;6316;48.118;-1.690;2023-12-14T11:31:04;9.30;99.90
12504;DHT22;6316;48.118;-1.690;2023-12-14T11:33:36;9.30;99.90
12504;DHT22;6316;48.118;-1.690;2023-12-14T11:36:02;9.30;99.90
12504;DHT22;6316;48.118;-1.690;2023-12-14T11:38:29;9.30;99.90
12504;DHT22;6316;48.118;-1.690;2023-12-14T11:40:55;9.40;99.90
12504;DHT22;6316;48.118;-1.690;2023-12-14T11:43:21;9.40;99.90
12504;DHT22;6316;48.118;-1.690;2023-12-14T11:45:48;9.30;99.90
12504;DHT22;6316;48.118;-1.690;2023-12-14T11:48:14;9.40;99.90
12504;DHT22;6316;48.118;-1.690;2023-12-14T11:50:41;9.40;99.90
12504;DHT22;6316;48.118;-1.690;2023-12-14T11:53:08;9.40;99.90
12504;DHT22;6316;48.118;-1.690;2023-12-14T11:55:36;9.50;99.90
12504;DHT22;6316;48.118;-1.690;2023-12-14T11:58:03;9.50;99.90
12504;DHT22;6316;48.118;-1.690;2023-12-14T12:00:30;9.50;99.90
12504;DHT22;6316;48.118;-1.690;2023-12-14T12:03:16;9.50;99.90
12504;DHT22;6316;48.118;-1.690;2023-12-14T12:05:45;9.50;99.90
12504;DHT22;6316;48.118;-1.690;2023-12-14T12:08:12;9.50;99.90
12504;DHT22;6316;48.118;-1.690;2023-12-14T12:10:39;9.50;99.90
12504;DHT22;6316;48.118;-1.690;2023-12-14T12:13:25;9.60;99.90
12504;DHT22;6316;48.118;-1.690;2023-12-14T12:15:51;9.60;99.90
12504;DHT22;6316;48.118;-1.690;2023-12-14T12:18:17;9.70;99.90
12504;DHT22;6316;48.118;-1.690;2023-12-14T12:20:43;9.70;99.90
12504;DHT22;6316;48.118;-1.690;2023-12-14T12:23:08;9.60;99.90
12504;DHT22;6316;48.118;-1.690;2023-12-14T12:25:35;9.70;99.90
12504;DHT22;6316;48.118;-1.690;2023-12-14T12:28:02;9.80;99.90
12504;DHT22;6316;48.118;-1.690;2023-12-14T12:30:29;9.80;99.90
12504;DHT22;6316;48.118;-1.690;2023-12-14T12:32:54;9.80;99.90
12504;DHT22;6316;48.118;-1.690;2023-12-14T12:35:22;9.80;99.90
12504;DHT22;6316;48.118;-1.690;2023-12-14T12:37:48;9.80;99.90
12504;DHT22;6316;48.118;-1.690;2023-12-14T12:40:20;9.80;99.90
12504;DHT22;6316;48.118;-1.690;2023-12-14T12:42:46;9.80;99.90
12504;DHT22;6316;48.118;-1.690;2023-12-14T12:45:15;9.80;99.90
12504;DHT22;6316;48.118;-1.690;2023-12-14T12:47:42;9.80;99.90
12504;DHT22;6316;48.118;-1.690;2023-12-14T12:50:08;9.80;99.90
12504;DHT22;6316;48.118;-1.690;2023-12-14T12:52:33;9.90;99.90
12504;DHT22;6316;48.118;-1.690;2023-12-14T12:54:59;9.90;99.90
12504;DHT22;6316;48.118;-1.690;2023-12-14T12:57:31;9.70;99.90
12504;DHT22;6316;48.118;-1.690;2023-12-14T12:59:57;9.90;99.90
12504;DHT22;6316;48.118;-1.690;2023-12-14T13:02:22;9.90;99.90
12504;DHT22;6316;48.118;-1.690;2023-12-14T13:04:48;10.00;99.90
12504;DHT22;6316;48.118;-1.690;2023-12-14T13:07:15;10.00;99.90
12504;DHT22;6316;48.118;-1.690;2023-12-14T13:09:46;10.00;99.90
12504;DHT22;6316;48.118;-1.690;2023-12-14T13:12:12;10.00;99.90
12504;DHT22;6316;48.118;-1.690;2023-12-14T13:14:38;10.00;99.90
12504;DHT22;6316;48.118;-1.690;2023-12-14T13:17:03;10.00;99.90
12504;DHT22;6316;48.118;-1.690;2023-12-14T13:19:29;10.10;99.90
12504;DHT22;6316;48.118;-1.690;2023-12-14T13:21:55;10.10;99.90
12504;DHT22;6316;48.118;-1.690;2023-12-14T13:24:23;10.10;99.90
12504;DHT22;6316;48.118;-1.690;2023-12-14T13:26:49;10.20;99.90
12504;DHT22;6316;48.118;-1.690;2023-12-14T13:29:15;10.20;99.90
12504;DHT22;6316;48.118;-1.690;2023-12-14T13:31:41;10.20;99.90
12504;DHT22;6316;48.118;-1.690;2023-12-14T13:34:06;10.20;99.90
12504;DHT22;6316;48.118;-1.690;2023-12-14T13:36:32;10.30;99.90
12504;DHT22;6316;48.118;-1.690;2023-12-14T13:38:58;10.20;99.90
12504;DHT22;6316;48.118;-1.690;2023-12-14T13:41:24;10.30;99.90
12504;DHT22;6316;48.118;-1.690;2023-12-14T13:43:50;10.30;99.90
12504;DHT22;6316;48.118;-1.690;2023-12-14T13:46:17;10.30;99.90
12504;DHT22;6316;48.118;-1.690;2023-12-14T13:48:43;10.30;99.90
12504;DHT22;6316;48.118;-1.690;2023-12-14T13:51:08;10.30;99.90
12504;DHT22;6316;48.118;-1.690;2023-12-14T13:53:34;10.30;99.90
12504;DHT22;6316;48.118;-1.690;2023-12-14T13:56:00;10.30;99.90
12504;DHT22;6316;48.118;-1.690;2023-12-14T13:58:25;10.30;99.90
12504;DHT22;6316;48.118;-1.690;2023-12-14T14:00:51;10.30;99.90
12504;DHT22;6316;48.118;-1.690;2023-12-14T14:03:16;10.30;99.90
12504;DHT22;6316;48.118;-1.690;2023-12-14T14:05:42;10.40;99.90
12504;DHT22;6316;48.118;-1.690;2023-12-14T14:08:09;10.40;99.90
12504;DHT22;6316;48.118;-1.690;2023-12-14T14:10:35;10.40;99.90
12504;DHT22;6316;48.118;-1.690;2023-12-14T14:13:01;10.40;99.90
12504;DHT22;6316;48.118;-1.690;2023-12-14T14:15:26;10.50;99.90
12504;DHT22;6316;48.118;-1.690;2023-12-14T14:17:53;10.50;99.90
12504;DHT22;6316;48.118;-1.690;2023-12-14T14:20:20;10.50;99.90
12504;DHT22;6316;48.118;-1.690;2023-12-14T14:22:46;10.50;99.90
12504;DHT22;6316;48.118;-1.690;2023-12-14T14:25:11;10.50;99.90
12504;DHT22;6316;48.118;-1.690;2023-12-14T14:27:37;10.60;99.90
12504;DHT22;6316;48.118;-1.690;2023-12-14T14:30:04;10.50;99.90
12504;DHT22;6316;48.118;-1.690;2023-12-14T14:32:29;10.50;99.90
12504;DHT22;6316;48.118;-1.690;2023-12-14T14:34:57;10.50;99.90
12504;DHT22;6316;48.118;-1.690;2023-12-14T14:37:24;10.50;99.90
12504;DHT22;6316;48.118;-1.690;2023-12-14T14:39:51;10.50;99.90
12504;DHT22;6316;48.118;-1.690;2023-12-14T14:42:16;10.60;99.90
12504;DHT22;6316;48.118;-1.690;2023-12-14T14:44:42;10.60;99.90
12504;DHT22;6316;48.118;-1.690;2023-12-14T14:47:08;10.60;99.90
12504;DHT22;6316;48.118;-1.690;2023-12-14T14:49:34;10.60;99.90
12504;DHT22;6316;48.118;-1.690;2023-12-14T14:51:59;10.60;99.90
12504;DHT22;6316;48.118;-1.690;2023-12-14T14:54:25;10.60;99.90
12504;DHT22;6316;48.118;-1.690;2023-12-14T14:56:51;10.50;99.90
12504;DHT22;6316;48.118;-1.690;2023-12-14T14:59:16;10.50;99.90
12504;DHT22;6316;48.118;-1.690;2023-12-14T15:01:42;10.50;99.90
12504;DHT22;6316;48.118;-1.690;2023-12-14T15:04:08;10.40;99.90
12504;DHT22;6316;48.118;-1.690;2023-12-14T15:06:34;10.40;99.90
12504;DHT22;6316;48.118;-1.690;2023-12-14T15:09:00;10.40;99.90
12504;DHT22;6316;48.118;-1.690;2023-12-14T15:11:26;10.40;99.90
12504;DHT22;6316;48.118;-1.690;2023-12-14T15:13:52;10.40;99.90
12504;DHT22;6316;48.118;-1.690;2023-12-14T15:16:17;10.40;99.90
12504;DHT22;6316;48.118;-1.690;2023-12-14T15:18:44;10.30;99.90
12504;DHT22;6316;48.118;-1.690;2023-12-14T15:21:13;10.30;99.90
12504;DHT22;6316;48.118;-1.690;2023-12-14T15:23:38;10.30;99.90
12504;DHT22;6316;48.118;-1.690;2023-12-14T15:26:05;10.20;99.90
12504;DHT22;6316;48.118;-1.690;2023-12-14T15:28:33;10.30;99.90
12504;DHT22;6316;48.118;-1.690;2023-12-14T15:30:59;10.30;99.90
12504;DHT22;6316;48.118;-1.690;2023-12-14T15:33:24;10.20;99.90
12504;DHT22;6316;48.118;-1.690;2023-12-14T15:35:51;10.20;99.90
12504;DHT22;6316;48.118;-1.690;2023-12-14T15:38:17;10.20;99.90
12504;DHT22;6316;48.118;-1.690;2023-12-14T15:40:42;10.20;99.90